createdAt,value
2018-12-12T00:00:24.632Z,1.25
2018-12-12T00:02:52.335Z,1.35
2018-12-12T00:05:20.040Z,1.31
2018-12-12T00:07:48.800Z,1.32
2018-12-12T00:10:19.681Z,1.28
2018-12-12T00:12:48.385Z,1.35
2018-12-12T00:15:17.508Z,1.22
2018-12-12T00:17:45.332Z,1.22
2018-12-12T00:20:12.897Z,1.30
2018-12-12T00:22:40.570Z,1.24
2018-12-12T00:25:08.161Z,1.29
2018-12-12T00:27:35.787Z,1.17
2018-12-12T00:30:03.604Z,1.16
2018-12-12T00:32:31.181Z,1.19
2018-12-12T00:34:58.874Z,1.16
2018-12-12T00:37:27.532Z,1.11
2018-12-12T00:39:56.443Z,1.14
2018-12-12T00:42:24.454Z,1.15
2018-12-12T00:44:52.158Z,1.17
2018-12-12T00:47:19.737Z,1.09
2018-12-12T00:49:47.313Z,1.16
2018-12-12T00:52:14.936Z,1.22
2018-12-12T00:54:42.828Z,1.24
2018-12-12T00:57:10.426Z,1.28
2018-12-12T00:59:37.993Z,1.25
2018-12-12T01:02:05.592Z,1.15
2018-12-12T01:04:33.197Z,1.22
2018-12-12T01:07:01.904Z,1.23
2018-12-12T01:09:29.490Z,1.22
2018-12-12T01:12:02.918Z,1.22
2018-12-12T01:14:30.570Z,1.22
2018-12-12T01:16:58.208Z,1.25
2018-12-12T01:19:25.867Z,1.24
2018-12-12T01:21:54.416Z,1.23
2018-12-12T01:24:23.471Z,1.31
2018-12-12T01:26:51.515Z,1.34
2018-12-12T01:29:19.085Z,1.35
2018-12-12T01:31:46.655Z,1.32
2018-12-12T01:34:14.238Z,1.31
2018-12-12T01:36:41.811Z,1.38
2018-12-12T01:39:09.407Z,1.40
2018-12-12T01:41:36.987Z,1.34
2018-12-12T01:44:04.645Z,1.29
2018-12-12T01:46:32.220Z,1.26
2018-12-12T01:48:59.856Z,1.22
2018-12-12T01:51:27.539Z,1.20
2018-12-12T01:53:55.183Z,1.27
2018-12-12T01:56:22.940Z,1.28
2018-12-12T01:58:50.605Z,1.30
2018-12-12T02:01:18.173Z,1.36
2018-12-12T02:03:45.791Z,1.27
2018-12-12T02:06:13.426Z,1.24
2018-12-12T02:08:42.725Z,1.25
2018-12-12T02:11:11.317Z,1.23
2018-12-12T02:13:39.519Z,1.24
2018-12-12T02:16:07.923Z,1.30
2018-12-12T02:18:37.013Z,1.27
2018-12-12T02:21:04.598Z,1.30
2018-12-12T02:23:32.237Z,1.33
2018-12-12T02:25:59.926Z,1.26
2018-12-12T02:28:27.511Z,1.33
2018-12-12T02:30:55.102Z,1.32
2018-12-12T02:33:22.699Z,1.27
2018-12-12T02:35:50.279Z,1.21
2018-12-12T02:38:17.847Z,1.22
2018-12-12T02:40:45.459Z,1.20
2018-12-12T02:43:13.044Z,1.14
2018-12-12T02:45:40.612Z,1.12
2018-12-12T02:48:08.192Z,1.12
2018-12-12T02:50:37.132Z,1.13
2018-12-12T02:53:05.125Z,1.10
2018-12-12T02:55:32.717Z,1.17
2018-12-12T02:58:00.324Z,1.09
2018-12-12T03:00:27.904Z,1.06
2018-12-12T03:02:55.515Z,1.12
2018-12-12T03:05:23.108Z,1.17
2018-12-12T03:07:50.695Z,1.20
2018-12-12T03:10:18.821Z,1.16
2018-12-12T03:12:47.585Z,1.16
2018-12-12T03:15:16.381Z,1.10
2018-12-12T03:17:44.299Z,1.20
2018-12-12T03:20:11.981Z,1.23
2018-12-12T03:22:39.618Z,1.14
2018-12-12T03:25:07.286Z,1.21
2018-12-12T03:27:34.862Z,1.18
2018-12-12T03:30:02.641Z,1.22
2018-12-12T03:32:30.455Z,1.22
2018-12-12T03:34:58.033Z,1.07
2018-12-12T03:37:26.575Z,1.13
2018-12-12T03:39:54.527Z,0.97
2018-12-12T03:42:22.128Z,1.00
2018-12-12T03:44:49.707Z,1.03
2018-12-12T03:47:17.286Z,1.04
2018-12-12T03:49:44.930Z,1.00
2018-12-12T03:52:12.505Z,1.02
2018-12-12T03:54:40.080Z,1.03
2018-12-12T03:57:07.663Z,1.09
2018-12-12T03:59:35.238Z,1.13
2018-12-12T04:02:02.825Z,1.06
2018-12-12T04:04:30.471Z,1.08
2018-12-12T04:06:58.077Z,1.04
2018-12-12T04:09:25.668Z,1.06
2018-12-12T04:11:53.270Z,1.03
2018-12-12T04:14:20.900Z,1.03
2018-12-12T04:16:48.486Z,1.00
2018-12-12T04:19:16.232Z,0.99
2018-12-12T04:21:43.900Z,1.08
2018-12-12T04:24:11.481Z,1.16
2018-12-12T04:26:39.054Z,1.27
2018-12-12T04:29:06.810Z,1.27
2018-12-12T04:31:35.826Z,1.16
2018-12-12T04:34:03.564Z,1.22
2018-12-12T04:36:31.140Z,1.10
2018-12-12T04:38:58.767Z,1.12
2018-12-12T04:41:26.530Z,1.10
2018-12-12T04:43:54.113Z,1.11
2018-12-12T04:46:21.752Z,1.05
2018-12-12T04:48:49.406Z,1.08
2018-12-12T04:51:16.991Z,1.02
2018-12-12T04:53:44.574Z,0.99
2018-12-12T04:56:12.189Z,0.96
2018-12-12T04:58:39.817Z,1.03
2018-12-12T05:01:08.543Z,1.00
2018-12-12T05:03:36.324Z,1.02
2018-12-12T05:06:03.963Z,1.12
2018-12-12T05:08:31.547Z,1.14
2018-12-12T05:10:59.202Z,1.08
2018-12-12T05:13:26.783Z,1.02
2018-12-12T05:15:54.400Z,1.02
2018-12-12T05:18:22.135Z,1.07
2018-12-12T05:20:49.719Z,1.06
2018-12-12T05:23:17.302Z,1.08
2018-12-12T05:25:46.344Z,1.05
2018-12-12T05:28:14.017Z,1.06
2018-12-12T05:30:41.601Z,1.05
2018-12-12T05:33:09.181Z,1.05
2018-12-12T05:35:36.765Z,1.13
2018-12-12T05:38:04.352Z,1.16
2018-12-12T05:40:32.253Z,1.13
2018-12-12T05:42:59.846Z,1.13
2018-12-12T05:45:27.737Z,1.14
2018-12-12T05:47:55.308Z,1.08
2018-12-12T05:50:22.899Z,1.12
2018-12-12T05:52:50.472Z,1.11
2018-12-12T05:55:18.054Z,1.12
2018-12-12T05:57:45.653Z,1.03
2018-12-12T06:00:14.592Z,1.09
2018-12-12T06:02:42.173Z,1.06
2018-12-12T06:05:09.903Z,0.96
2018-12-12T06:07:38.666Z,0.95
2018-12-12T06:10:08.101Z,0.99
2018-12-12T06:12:36.821Z,0.93
2018-12-12T06:15:05.679Z,0.88
2018-12-12T06:17:33.265Z,0.86
2018-12-12T06:20:01.190Z,0.91
2018-12-12T06:22:29.494Z,0.94
2018-12-12T06:24:57.064Z,0.94
2018-12-12T06:27:24.648Z,0.94
2018-12-12T06:29:52.255Z,0.96
2018-12-12T06:32:20.190Z,0.84
2018-12-12T06:34:48.793Z,0.91
2018-12-12T06:37:18.110Z,0.97
2018-12-12T06:39:46.080Z,0.94
2018-12-12T06:42:13.719Z,0.91
2018-12-12T06:44:41.298Z,0.98
2018-12-12T06:47:08.884Z,0.89
2018-12-12T06:49:36.465Z,0.86
2018-12-12T06:52:04.159Z,0.83
2018-12-12T06:54:31.819Z,0.87
2018-12-12T06:56:59.389Z,0.84
2018-12-12T06:59:26.976Z,0.81
2018-12-12T07:01:54.553Z,0.80
2018-12-12T07:04:22.128Z,0.80
2018-12-12T07:06:49.704Z,0.90
2018-12-12T07:09:17.382Z,0.95
2018-12-12T07:11:45.372Z,0.91
2018-12-12T07:14:15.188Z,0.90
2018-12-12T07:16:43.475Z,0.99
2018-12-12T07:19:11.065Z,1.04
2018-12-12T07:21:38.634Z,1.00
2018-12-12T07:24:06.216Z,1.03
2018-12-12T07:26:33.800Z,1.07
2018-12-12T07:29:01.373Z,1.12
2018-12-12T07:31:28.960Z,1.13
2018-12-12T07:34:00.952Z,1.14
2018-12-12T07:36:26.286Z,1.09
2018-12-12T07:38:54.103Z,1.09
2018-12-12T07:41:22.670Z,1.21
2018-12-12T07:43:51.730Z,1.19
2018-12-12T07:46:20.832Z,1.19
2018-12-12T07:48:48.416Z,1.13
2018-12-12T07:51:15.987Z,1.18
2018-12-12T07:53:43.552Z,1.20
2018-12-12T07:56:11.258Z,1.27
2018-12-12T07:58:38.832Z,1.30
2018-12-12T08:01:06.413Z,1.37
2018-12-12T08:03:34.027Z,1.34
2018-12-12T08:06:01.704Z,1.26
2018-12-12T08:08:29.405Z,1.21
2018-12-12T08:10:57.693Z,1.23
2018-12-12T08:13:26.798Z,1.26
2018-12-12T08:15:56.291Z,1.31
2018-12-12T08:18:25.776Z,1.43
2018-12-12T08:20:53.370Z,1.46
2018-12-12T08:23:21.998Z,1.54
2018-12-12T08:25:51.700Z,1.61
2018-12-12T08:28:20.264Z,1.52
2018-12-12T08:30:47.947Z,1.43
2018-12-12T08:33:15.804Z,1.38
2018-12-12T08:35:44.317Z,1.24
2018-12-12T08:38:13.596Z,1.25
2018-12-12T08:40:41.639Z,1.29
2018-12-12T08:43:09.207Z,1.26
2018-12-12T08:45:36.787Z,1.39
2018-12-12T08:48:04.370Z,1.39
2018-12-12T08:50:31.936Z,1.32
2018-12-12T08:52:59.513Z,1.33
2018-12-12T08:55:27.103Z,1.39
2018-12-12T08:57:54.770Z,1.41
2018-12-12T09:00:22.356Z,1.44
2018-12-12T09:02:49.936Z,1.47
2018-12-12T09:05:17.516Z,1.54
2018-12-12T09:07:45.087Z,1.61
2018-12-12T09:10:12.670Z,1.63
2018-12-12T09:12:40.568Z,1.65
2018-12-12T09:15:10.006Z,1.46
2018-12-12T09:17:39.170Z,1.50
2018-12-12T09:20:06.888Z,1.58
2018-12-12T09:22:34.487Z,1.60
2018-12-12T09:25:02.112Z,1.51
2018-12-12T09:27:31.617Z,1.50
2018-12-12T09:30:00.007Z,1.60
2018-12-12T09:32:27.585Z,1.55
2018-12-12T09:34:55.163Z,1.63
2018-12-12T09:37:22.773Z,1.80
2018-12-12T09:39:50.353Z,1.64
2018-12-12T09:42:17.934Z,1.77
2018-12-12T09:44:45.513Z,1.83
2018-12-12T09:47:13.092Z,1.91
2018-12-12T09:49:40.672Z,1.96
2018-12-12T09:52:08.339Z,2.24
2018-12-12T09:54:36.025Z,2.07
2018-12-12T09:57:03.605Z,2.16
2018-12-12T09:59:31.216Z,1.93
2018-12-12T10:01:58.797Z,1.84
2018-12-12T10:04:26.459Z,1.93
2018-12-12T10:06:54.040Z,2.02
2018-12-12T10:09:21.614Z,1.91
2018-12-12T10:11:50.094Z,1.85
2018-12-12T10:14:20.375Z,1.95
2018-12-12T10:16:48.028Z,1.95
2018-12-12T10:19:15.605Z,1.94
2018-12-12T10:21:43.407Z,1.92
2018-12-12T10:24:11.026Z,1.90
2018-12-12T10:26:38.718Z,1.98
2018-12-12T10:29:06.308Z,1.95
2018-12-12T10:31:34.218Z,2.09
2018-12-12T10:34:01.834Z,2.28
2018-12-12T10:36:29.411Z,2.08
2018-12-12T10:38:57.073Z,2.24
2018-12-12T10:41:24.649Z,2.20
2018-12-12T10:43:52.232Z,2.22
2018-12-12T10:46:19.853Z,2.24
2018-12-12T10:48:47.435Z,2.22
2018-12-12T10:51:15.073Z,2.27
2018-12-12T10:53:42.731Z,2.29
2018-12-12T10:56:10.417Z,2.31
2018-12-12T10:58:38.343Z,2.42
2018-12-12T11:01:11.876Z,2.46
2018-12-12T11:03:44.304Z,2.38
2018-12-12T11:06:11.249Z,2.40
2018-12-12T11:08:38.833Z,2.28
2018-12-12T11:11:06.454Z,2.30
2018-12-12T11:13:34.032Z,2.38
2018-12-12T11:16:01.604Z,2.53
2018-12-12T11:18:29.187Z,2.77
2018-12-12T11:20:56.842Z,2.92
2018-12-12T11:23:24.416Z,3.02
2018-12-12T11:25:52.057Z,3.12
2018-12-12T11:28:19.634Z,3.06
2018-12-12T11:30:47.241Z,3.11
2018-12-12T11:33:14.808Z,3.09
2018-12-12T11:35:42.378Z,3.21
2018-12-12T11:38:10.067Z,3.32
2018-12-12T11:40:37.624Z,3.26
2018-12-12T11:43:05.275Z,3.35
2018-12-12T11:45:32.944Z,3.19
2018-12-12T11:48:00.704Z,3.14
2018-12-12T11:50:28.267Z,3.29
2018-12-12T11:52:55.844Z,3.41
2018-12-12T11:55:23.422Z,3.59
2018-12-12T11:57:51.061Z,3.87
2018-12-12T12:00:18.642Z,4.07
2018-12-12T12:02:46.214Z,4.09
2018-12-12T12:05:13.793Z,3.97
2018-12-12T12:07:41.404Z,4.28
2018-12-12T12:10:09.130Z,4.28
2018-12-12T12:12:36.692Z,4.07
2018-12-12T12:15:05.704Z,4.09
2018-12-12T12:17:33.273Z,4.37
2018-12-12T12:20:00.855Z,4.30
2018-12-12T12:22:28.476Z,4.27
2018-12-12T12:24:56.057Z,4.20
2018-12-12T12:27:23.692Z,4.09
2018-12-12T12:29:51.261Z,4.15
2018-12-12T12:32:18.989Z,4.23
2018-12-12T12:34:46.612Z,4.25
2018-12-12T12:37:14.236Z,4.28
2018-12-12T12:39:41.801Z,4.35
2018-12-12T12:42:09.458Z,4.30
2018-12-12T12:44:37.023Z,4.53
2018-12-12T12:47:04.678Z,4.40
2018-12-12T12:49:32.364Z,4.18
2018-12-12T12:51:59.933Z,4.22
2018-12-12T12:54:27.497Z,4.05
2018-12-12T12:56:55.225Z,3.88
2018-12-12T12:59:22.786Z,4.03
2018-12-12T13:01:50.357Z,3.96
2018-12-12T13:04:17.925Z,3.87
2018-12-12T13:06:45.583Z,3.88
2018-12-12T13:09:13.244Z,3.97
2018-12-12T13:11:40.815Z,4.01
2018-12-12T13:14:08.550Z,3.85
2018-12-12T13:16:36.203Z,3.76
2018-12-12T13:19:03.874Z,3.93
2018-12-12T13:21:31.437Z,3.95
2018-12-12T13:23:59.026Z,3.80
2018-12-12T13:26:26.592Z,3.82
2018-12-12T13:28:54.164Z,3.74
2018-12-12T13:31:21.751Z,3.66
2018-12-12T13:33:49.308Z,3.82
2018-12-12T13:36:16.868Z,3.73
2018-12-12T13:38:44.445Z,3.68
2018-12-12T13:41:12.021Z,3.53
2018-12-12T13:43:39.668Z,3.44
2018-12-12T13:46:07.238Z,3.52
2018-12-12T13:48:34.805Z,3.50
2018-12-12T13:51:02.388Z,3.53
2018-12-12T13:53:29.969Z,3.54
2018-12-12T13:55:57.531Z,3.39
2018-12-12T13:58:25.109Z,3.39
2018-12-12T14:00:52.673Z,3.35
2018-12-12T14:03:20.247Z,3.47
2018-12-12T14:05:47.814Z,3.53
2018-12-12T14:08:15.466Z,3.39
2018-12-12T14:10:43.116Z,3.38
2018-12-12T14:13:10.678Z,3.34
2018-12-12T14:15:38.274Z,3.25
2018-12-12T14:18:05.848Z,3.31
2018-12-12T14:20:33.455Z,3.15
2018-12-12T14:23:01.042Z,3.13
2018-12-12T14:25:28.640Z,3.09
2018-12-12T14:27:56.221Z,3.09
2018-12-12T14:30:23.795Z,3.10
2018-12-12T14:32:51.373Z,3.03
2018-12-12T14:35:18.940Z,3.03
2018-12-12T14:37:47.819Z,3.07
2018-12-12T14:40:15.468Z,3.07
2018-12-12T14:42:45.887Z,2.97
2018-12-12T14:45:13.557Z,2.99
2018-12-12T14:47:41.212Z,3.07
2018-12-12T14:50:08.786Z,3.07
2018-12-12T14:52:36.436Z,3.08
2018-12-12T14:55:04.236Z,3.06
2018-12-12T14:57:31.807Z,3.04
2018-12-12T14:59:59.593Z,3.06
2018-12-12T15:02:27.396Z,3.00
2018-12-12T15:04:55.054Z,3.10
2018-12-12T15:07:22.716Z,3.00
2018-12-12T15:09:51.376Z,3.00
2018-12-12T15:12:19.308Z,2.92
2018-12-12T15:14:46.866Z,2.86
2018-12-12T15:17:14.443Z,2.84
2018-12-12T15:19:42.013Z,2.81
2018-12-12T15:22:09.712Z,2.79
2018-12-12T15:24:37.379Z,2.77
2018-12-12T15:27:04.962Z,2.76
2018-12-12T15:29:33.756Z,2.73
2018-12-12T15:32:02.728Z,2.85
2018-12-12T15:34:31.984Z,2.80
2018-12-12T15:37:01.762Z,2.66
2018-12-12T15:39:29.490Z,2.58
2018-12-12T15:41:57.056Z,2.68
2018-12-12T15:44:24.637Z,2.60
2018-12-12T15:46:52.268Z,2.70
2018-12-12T15:49:19.858Z,2.80
2018-12-12T15:51:47.433Z,2.78
2018-12-12T15:54:15.047Z,2.68
2018-12-12T15:56:42.646Z,2.69
2018-12-12T15:59:11.683Z,2.60
2018-12-12T16:01:40.512Z,2.71
2018-12-12T16:04:08.179Z,2.70
2018-12-12T16:06:35.748Z,2.80
2018-12-12T16:09:05.242Z,2.74
2018-12-12T16:11:32.823Z,2.72
2018-12-12T16:14:00.464Z,2.78
2018-12-12T16:16:28.125Z,2.78
2018-12-12T16:18:55.765Z,2.74
2018-12-12T16:21:23.349Z,2.60
2018-12-12T16:23:50.920Z,2.61
2018-12-12T16:26:18.568Z,2.56
2018-12-12T16:28:46.208Z,2.48
2018-12-12T16:31:13.894Z,2.42
2018-12-12T16:33:41.456Z,2.51
2018-12-12T16:36:09.089Z,2.53
2018-12-12T16:38:36.672Z,2.39
2018-12-12T16:41:04.543Z,2.46
2018-12-12T16:43:32.258Z,2.49
2018-12-12T16:45:59.945Z,2.48
2018-12-12T16:48:27.605Z,2.36
2018-12-12T16:50:55.170Z,2.44
2018-12-12T16:53:23.148Z,2.43
2018-12-12T16:55:53.647Z,2.39
2018-12-12T16:58:23.613Z,2.43
2018-12-12T17:00:52.659Z,2.35
2018-12-12T17:03:21.832Z,2.32
2018-12-12T17:05:49.621Z,2.35
2018-12-12T17:08:17.182Z,2.35
2018-12-12T17:10:48.114Z,2.29
2018-12-12T17:13:16.031Z,2.33
2018-12-12T17:15:43.592Z,2.26
2018-12-12T17:18:11.218Z,2.15
2018-12-12T17:20:38.809Z,2.21
2018-12-12T17:23:06.438Z,2.20
2018-12-12T17:25:34.139Z,2.20
2018-12-12T17:28:01.740Z,2.12
2018-12-12T17:30:30.132Z,2.13
2018-12-12T17:32:57.807Z,2.03
2018-12-12T17:35:25.918Z,2.02
2018-12-12T17:37:54.704Z,1.95
2018-12-12T17:40:22.270Z,1.87
2018-12-12T17:42:51.116Z,2.00
2018-12-12T17:45:18.814Z,1.89
2018-12-12T17:47:46.569Z,1.81
2018-12-12T17:50:14.362Z,1.75
2018-12-12T17:52:41.993Z,1.87
2018-12-12T17:55:09.569Z,1.81
2018-12-12T17:57:37.219Z,1.80
2018-12-12T18:00:05.404Z,1.86
2018-12-12T18:02:32.968Z,1.93
2018-12-12T18:05:00.540Z,2.03
2018-12-12T18:07:28.269Z,2.02
2018-12-12T18:09:55.831Z,2.00
2018-12-12T18:12:23.464Z,2.03
2018-12-12T18:14:51.150Z,2.03
2018-12-12T18:17:18.712Z,1.96
2018-12-12T18:19:46.371Z,1.94
2018-12-12T18:22:13.972Z,1.87
2018-12-12T18:24:41.699Z,1.95
2018-12-12T18:27:10.480Z,1.97
2018-12-12T18:29:38.325Z,2.00
2018-12-12T18:32:05.886Z,1.86
2018-12-12T18:34:33.986Z,1.85
2018-12-12T18:37:02.217Z,1.83
2018-12-12T18:39:30.660Z,1.91
2018-12-12T18:41:58.271Z,1.93
2018-12-12T18:44:26.079Z,1.96
2018-12-12T18:46:54.598Z,1.96
2018-12-12T18:49:24.332Z,1.90
2018-12-12T18:51:52.758Z,1.93
2018-12-12T18:54:20.370Z,1.91
2018-12-12T18:56:47.932Z,1.87
2018-12-12T18:59:15.492Z,1.92
2018-12-12T19:01:43.052Z,1.91
2018-12-12T19:04:10.626Z,1.88
2018-12-12T19:06:38.201Z,1.87
2018-12-12T19:09:08.144Z,1.82
2018-12-12T19:11:37.570Z,1.75
2018-12-12T19:14:05.143Z,1.90
2018-12-12T19:16:32.700Z,1.93
2018-12-12T19:19:00.287Z,1.88
2018-12-12T19:21:27.856Z,1.94
2018-12-12T19:23:56.264Z,1.93
2018-12-12T19:26:25.783Z,1.77
2018-12-12T19:28:53.352Z,1.70
2018-12-12T19:31:20.919Z,1.82
2018-12-12T19:33:48.489Z,1.86
2018-12-12T19:36:16.053Z,1.76
2018-12-12T19:38:43.708Z,1.69
2018-12-12T19:41:11.388Z,1.85
2018-12-12T19:43:38.961Z,1.84
2018-12-12T19:46:06.528Z,2.00
2018-12-12T19:48:34.095Z,1.84
2018-12-12T19:51:01.671Z,1.78
2018-12-12T19:53:29.236Z,1.72
2018-12-12T19:55:56.787Z,1.82
2018-12-12T19:58:25.515Z,1.76
2018-12-12T20:00:53.383Z,1.81
2018-12-12T20:03:20.952Z,1.75
2018-12-12T20:05:48.518Z,1.78
2018-12-12T20:08:16.204Z,1.74
2018-12-12T20:10:43.757Z,1.88
2018-12-12T20:13:11.384Z,1.85
2018-12-12T20:15:45.489Z,1.95
2018-12-12T20:18:13.051Z,2.05
2018-12-12T20:20:40.642Z,2.04
2018-12-12T20:23:08.260Z,1.85
2018-12-12T20:25:35.862Z,1.91
2018-12-12T20:28:03.454Z,1.89
2018-12-12T20:30:35.278Z,1.87
2018-12-12T20:33:01.609Z,1.96
2018-12-12T20:35:31.041Z,1.95
2018-12-12T20:37:59.370Z,1.97
2018-12-12T20:40:26.945Z,1.96
2018-12-12T20:42:54.508Z,1.93
2018-12-12T20:45:22.084Z,1.90
2018-12-12T20:47:49.662Z,1.83
2018-12-12T20:50:17.267Z,1.78
2018-12-12T20:52:44.828Z,1.87
2018-12-12T20:55:12.515Z,1.78
2018-12-12T20:57:40.081Z,1.87
2018-12-12T21:00:08.913Z,1.80
2018-12-12T21:02:36.571Z,1.82
2018-12-12T21:05:04.466Z,1.79
2018-12-12T21:07:32.063Z,1.76
2018-12-12T21:09:59.787Z,1.66
2018-12-12T21:12:27.357Z,1.61
2018-12-12T21:14:54.922Z,1.63
2018-12-12T21:17:22.772Z,1.58
2018-12-12T21:19:54.093Z,1.39
2018-12-12T21:22:21.915Z,1.48
2018-12-12T21:24:49.548Z,1.41
2018-12-12T21:27:17.251Z,1.29
2018-12-12T21:29:44.814Z,1.34
2018-12-12T21:32:12.374Z,1.36
2018-12-12T21:34:39.944Z,1.31
2018-12-12T21:37:07.573Z,1.37
2018-12-12T21:39:35.826Z,1.23
2018-12-12T21:42:05.406Z,1.18
2018-12-12T21:44:33.820Z,1.19
2018-12-12T21:47:01.925Z,1.16
2018-12-12T21:49:29.617Z,1.01
2018-12-12T21:51:57.176Z,1.04
2018-12-12T21:54:24.752Z,0.91
2018-12-12T21:56:52.333Z,0.89
2018-12-12T21:59:19.979Z,0.77
2018-12-12T22:01:47.648Z,0.69
2018-12-12T22:04:15.236Z,0.76
2018-12-12T22:06:42.802Z,0.74
2018-12-12T22:09:10.552Z,0.66
2018-12-12T22:11:38.792Z,0.62
2018-12-12T22:14:08.477Z,0.54
2018-12-12T22:16:37.022Z,0.50
2018-12-12T22:19:04.668Z,0.46
2018-12-12T22:21:32.311Z,0.46
2018-12-12T22:23:59.882Z,0.36
2018-12-12T22:26:27.763Z,0.38
2018-12-12T22:28:55.541Z,0.34
2018-12-12T22:31:23.188Z,0.30
2018-12-12T22:33:50.762Z,0.38
2018-12-12T22:36:18.517Z,0.29
2018-12-12T22:38:46.159Z,0.31
2018-12-12T22:41:13.845Z,0.25
2018-12-12T22:43:41.502Z,0.20
2018-12-12T22:46:09.163Z,0.20
2018-12-12T22:48:36.823Z,0.16
2018-12-12T22:51:04.461Z,0.11
2018-12-12T22:53:32.068Z,0.21
2018-12-12T22:55:59.654Z,0.04
2018-12-12T22:58:27.250Z,-0.05
2018-12-12T23:00:59.943Z,0.13
2018-12-12T23:03:27.576Z,0.07
2018-12-12T23:05:55.249Z,-0.02
2018-12-12T23:08:22.831Z,0.23
2018-12-12T23:10:50.469Z,0.28
2018-12-12T23:13:18.029Z,0.42
2018-12-12T23:15:45.612Z,0.45
2018-12-12T23:18:13.266Z,0.52
2018-12-12T23:20:40.840Z,0.54
2018-12-12T23:23:08.419Z,0.54
2018-12-12T23:25:37.672Z,0.53
2018-12-12T23:28:07.269Z,0.59
2018-12-12T23:30:34.865Z,0.56
2018-12-12T23:33:02.503Z,0.54
2018-12-12T23:35:30.088Z,0.58
2018-12-12T23:37:57.705Z,0.55
2018-12-12T23:40:25.362Z,0.60
2018-12-12T23:42:52.961Z,0.55
2018-12-12T23:45:20.549Z,0.53
2018-12-12T23:47:48.125Z,0.53
2018-12-12T23:50:15.702Z,0.60
2018-12-12T23:52:43.273Z,0.56
2018-12-12T23:55:11.243Z,0.65
2018-12-12T23:57:40.418Z,0.63
